Time;durP1;ratioP1;P1;durP2;ratioP2;P2;SDS_P1;SDS_P2;PMS_P1;PMS_P2;Temp;Humidity;BMP_temperature;BMP_pressure;BME280_temperature;BME280_humidity;BME280_pressure;Samples;Min_cycle;Max_cycle;Signal;HPM_P1;HPM_P2
2023/03/24 00:01:40;;;;;;;;;;;;;;;11.37;69.06;99513.48;134312;1297;22426;-73
2023/03/24 00:04:41;;;;;;;;;;;;;;;11.38;69.39;99513.45;134105;1296;23204;-73
2023/03/24 00:07:42;;;;;;;;;;;;;;;11.39;69.34;99512.80;134286;1297;22629;-73
2023/03/24 00:11:05;;;;;;;;;;;;;;;11.41;69.40;99511.11;134311;1297;22460;-73
2023/03/24 00:14:06;;;;;;;;;;;;;;;11.44;69.52;99507.59;134324;1297;23278;-73
2023/03/24 00:17:11;;;;;;;;;;;;;;;11.48;69.38;99507.50;134318;1297;22562;-73
2023/03/24 00:20:16;;;;;;;;;;;;;;;11.50;69.30;99499.84;134306;1297;22530;-73
2023/03/24 00:23:21;;;;;;;;;;;;;;;11.51;69.31;99501.77;134186;1297;22435;-73
2023/03/24 00:26:23;;;;;;;;;;;;;;;11.52;69.29;99504.57;134283;1300;22456;-73
2023/03/24 00:29:24;;;;;;;;;;;;;;;11.52;69.24;99498.70;134287;1297;22460;-73
2023/03/24 00:32:26;;;;;;;;;;;;;;;11.53;69.28;99491.42;134317;1303;22495;-73
2023/03/24 00:35:27;;;;;;;;;;;;;;;11.55;69.47;99490.05;134307;1296;22439;-73
2023/03/24 00:38:28;;;;;;;;;;;;;;;11.56;69.23;99485.56;134285;1298;23118;-73
2023/03/24 00:41:29;;;;;;;;;;;;;;;11.58;69.32;99485.69;134301;1301;22444;-73
2023/03/24 00:44:33;;;;;;;;;;;;;;;11.60;69.39;99477.36;134290;1298;22472;-73
2023/03/24 00:47:37;;;;;;;;;;;;;;;11.61;69.32;99472.34;134316;1298;22477;-73
2023/03/24 00:50:38;;;;;;;;;;;;;;;11.64;69.20;99466.40;134153;1298;22491;-73
2023/03/24 00:53:42;;;;;;;;;;;;;;;11.64;69.18;99463.90;134299;1298;22444;-73
2023/03/24 00:56:43;;;;;;;;;;;;;;;11.63;69.23;99459.40;134139;1298;22444;-73
2023/03/24 00:59:47;;;;;;;;;;;;;;;11.60;69.15;99453.72;134083;1298;22515;-73
2023/03/24 01:02:52;;;;;;;;;;;;;;;11.57;69.04;99454.63;134309;1297;22430;-73
2023/03/24 01:05:56;;;;;;;;;;;;;;;11.55;69.11;99451.05;134081;1303;22417;-73
2023/03/24 01:08:57;;;;;;;;;;;;;;;11.53;69.42;99449.33;134299;1296;22433;-74
2023/03/24 01:11:57;;;;;;;;;;;;;;;11.52;69.26;99442.88;134095;1296;22525;-73
2023/03/24 01:15:01;;;;;;;;;;;;;;;11.52;69.30;99440.73;134332;1296;23213;-73
2023/03/24 01:18:02;;;;;;;;;;;;;;;11.45;69.04;99432.08;134040;1301;22508;-73
2023/03/24 01:21:03;;;;;;;;;;;;;;;11.27;69.28;99427.92;134313;1296;23524;-73
2023/03/24 01:24:08;;;;;;;;;;;;;;;11.17;69.58;99426.79;134084;1298;23228;-73
2023/03/24 01:27:09;;;;;;;;;;;;;;;11.13;69.64;99426.34;134088;1298;23184;-73
2023/03/24 01:30:19;;;;;;;;;;;;;;;11.11;69.73;99422.43;134334;1298;23431;-73
2023/03/24 01:33:21;;;;;;;;;;;;;;;11.05;69.88;99418.23;134311;1297;22469;-73
2023/03/24 01:36:25;;;;;;;;;;;;;;;10.93;70.07;99420.27;134339;1298;22529;-73
2023/03/24 01:39:25;;;;;;;;;;;;;;;10.84;70.15;99416.33;134297;1297;22548;-73
2023/03/24 01:42:27;;;;;;;;;;;;;;;10.74;70.50;99411.33;134047;1298;23389;-73
2023/03/24 01:45:46;;;;;;;;;;;;;;;10.62;70.73;99407.27;134177;1297;22514;-73
2023/03/24 01:49:05;;;;;;;;;;;;;;;10.56;70.98;99403.92;134313;1298;22498;-73
2023/03/24 01:52:09;;;;;;;;;;;;;;;10.57;71.17;99401.94;134146;1297;22460;-73
2023/03/24 01:55:17;;;;;;;;;;;;;;;10.58;71.15;99403.77;134142;1298;22419;-73
2023/03/24 01:58:19;;;;;;;;;;;;;;;10.60;71.27;99403.85;134135;1297;22435;-73
2023/03/24 02:01:32;;;;;;;;;;;;;;;10.64;71.48;99399.48;134024;1299;22439;-72
2023/03/24 02:04:57;;;;;;;;;;;;;;;10.67;71.46;99401.17;134149;1298;22442;-73
2023/03/24 02:08:02;;;;;;;;;;;;;;;10.74;71.69;99400.89;134038;1296;22414;-73
2023/03/24 02:11:02;;;;;;;;;;;;;;;10.83;71.84;99397.13;134128;1298;23259;-73
2023/03/24 02:14:11;;;;;;;;;;;;;;;10.95;72.03;99393.05;134136;1298;22868;-73
2023/03/24 02:17:22;;;;;;;;;;;;;;;11.07;71.96;99387.18;134173;1296;22528;-73
2023/03/24 02:20:32;;;;;;;;;;;;;;;11.18;71.80;99383.70;134077;1298;22471;-73
2023/03/24 02:23:42;;;;;;;;;;;;;;;11.27;71.82;99378.64;134101;1296;22423;-73
2023/03/24 02:26:48;;;;;;;;;;;;;;;11.36;71.70;99375.99;134176;1298;22582;-73
2023/03/24 02:29:54;;;;;;;;;;;;;;;11.44;71.58;99370.92;134321;1298;22534;-73
2023/03/24 02:33:10;;;;;;;;;;;;;;;11.51;71.36;99372.38;134214;1296;171662;-73
2023/03/24 02:36:20;;;;;;;;;;;;;;;11.55;71.33;99357.98;134312;1296;22467;-74
2023/03/24 02:39:28;;;;;;;;;;;;;;;11.60;71.33;99354.69;134086;1298;22463;-73
2023/03/24 02:42:29;;;;;;;;;;;;;;;11.64;71.12;99352.55;134133;1300;22472;-73
2023/03/24 02:45:36;;;;;;;;;;;;;;;11.69;71.14;99361.98;134323;1297;22467;-73
2023/03/24 02:48:57;;;;;;;;;;;;;;;11.72;71.00;99364.75;134204;1297;22461;-74
2023/03/24 02:52:03;;;;;;;;;;;;;;;11.76;71.01;99357.20;134169;1297;22463;-73
2023/03/24 02:55:13;;;;;;;;;;;;;;;11.77;71.08;99356.33;134099;1300;22489;-73
2023/03/24 02:58:22;;;;;;;;;;;;;;;11.77;70.99;99357.89;134297;1296;22442;-73
2023/03/24 03:01:31;;;;;;;;;;;;;;;11.80;70.97;99357.05;134056;1300;22559;-73
2023/03/24 03:04:57;;;;;;;;;;;;;;;11.82;71.03;99356.40;134216;1298;22445;-73
2023/03/24 03:08:00;;;;;;;;;;;;;;;11.84;71.14;99356.33;134113;1295;22456;-74
2023/03/24 03:11:06;;;;;;;;;;;;;;;11.84;71.19;99353.14;134349;1301;22431;-74
2023/03/24 03:14:12;;;;;;;;;;;;;;;11.84;71.29;99348.23;134144;1298;23138;-74
2023/03/24 03:17:15;;;;;;;;;;;;;;;11.82;71.31;99346.66;134221;1297;22599;-74
2023/03/24 03:20:19;;;;;;;;;;;;;;;11.81;71.32;99344.05;134348;1296;23156;-74
2023/03/24 03:23:27;;;;;;;;;;;;;;;11.78;71.43;99341.48;134338;1301;22465;-74
2023/03/24 03:26:31;;;;;;;;;;;;;;;11.75;71.65;99337.17;134114;1295;23188;-74
2023/03/24 03:29:35;;;;;;;;;;;;;;;11.73;71.77;99342.19;134109;1300;22443;-74
2023/03/24 03:32:38;;;;;;;;;;;;;;;11.71;71.84;99341.07;134034;1300;22516;-74
2023/03/24 03:35:44;;;;;;;;;;;;;;;11.68;72.14;99340.27;134350;1297;22443;-73
2023/03/24 03:38:55;;;;;;;;;;;;;;;11.65;72.25;99341.67;134315;1297;23227;-73
2023/03/24 03:41:56;;;;;;;;;;;;;;;11.62;72.52;99338.30;134188;1294;22487;-74
2023/03/24 03:44:57;;;;;;;;;;;;;;;11.59;73.21;99337.50;134342;1297;22459;-73
2023/03/24 03:47:58;;;;;;;;;;;;;;;11.55;73.68;99336.23;134088;1298;22456;-73
2023/03/24 03:50:59;;;;;;;;;;;;;;;11.53;73.74;99334.88;134206;1297;23344;-73
2023/03/24 03:54:01;;;;;;;;;;;;;;;11.51;73.56;99333.92;134337;1298;22494;-73
2023/03/24 03:57:03;;;;;;;;;;;;;;;11.49;74.08;99334.51;134335;1303;22473;-73
2023/03/24 04:00:14;;;;;;;;;;;;;;;11.45;74.25;99333.09;134145;1298;23344;-74
2023/03/24 04:03:21;;;;;;;;;;;;;;;11.42;74.64;99326.13;134160;1298;22648;-73
2023/03/24 04:06:43;;;;;;;;;;;;;;;11.41;75.05;99323.59;134121;1297;23070;-74
2023/03/24 04:09:53;;;;;;;;;;;;;;;11.41;75.33;99323.98;134122;1291;22441;-74
2023/03/24 04:12:57;;;;;;;;;;;;;;;11.41;75.40;99321.29;134208;1298;22447;-74
2023/03/24 04:16:17;;;;;;;;;;;;;;;11.42;75.78;99320.98;134140;1297;25192;-73
2023/03/24 04:20:02;;;;;;;;;;;;;;;11.43;75.85;99318.58;134005;1298;22477;-73
2023/03/24 04:23:03;;;;;;;;;;;;;;;11.41;75.89;99318.23;134098;1296;22693;-73
2023/03/24 04:26:25;;;;;;;;;;;;;;;11.42;75.87;99320.15;134124;1298;22417;-73
2023/03/24 04:29:45;;;;;;;;;;;;;;;11.42;75.97;99316.91;134198;1297;23538;-73
2023/03/24 04:32:49;;;;;;;;;;;;;;;11.41;76.10;99313.70;133950;1291;22483;-74
2023/03/24 04:36:05;;;;;;;;;;;;;;;11.41;76.46;99310.59;134108;1291;22459;-73
2023/03/24 04:39:24;;;;;;;;;;;;;;;11.38;76.63;99306.02;134068;1298;22463;-74
2023/03/24 04:42:33;;;;;;;;;;;;;;;11.34;77.19;99299.93;134165;1297;22405;-74
2023/03/24 04:45:35;;;;;;;;;;;;;;;11.31;77.37;99294.08;134037;1297;22576;-74
2023/03/24 04:49:02;;;;;;;;;;;;;;;11.29;77.58;99286.45;133885;1297;22475;-74
2023/03/24 04:52:08;;;;;;;;;;;;;;;11.27;77.83;99284.88;134176;1295;23136;-74
2023/03/24 04:55:31;;;;;;;;;;;;;;;11.25;78.09;99290.17;134107;1290;22442;-74
2023/03/24 04:58:39;;;;;;;;;;;;;;;11.23;78.12;99292.25;133920;1298;22540;-74
2023/03/24 05:01:48;;;;;;;;;;;;;;;11.22;77.98;99295.35;134009;1297;23214;-73
2023/03/24 05:05:11;;;;;;;;;;;;;;;11.22;77.84;99287.91;134144;1297;23572;-74
2023/03/24 05:08:22;;;;;;;;;;;;;;;11.22;78.13;99289.83;133960;1301;23198;-73
2023/03/24 05:11:26;;;;;;;;;;;;;;;11.23;78.24;99288.71;134089;1301;23078;-74
2023/03/24 05:14:34;;;;;;;;;;;;;;;11.23;78.46;99285.02;134136;1298;22467;-74
2023/03/24 05:17:35;;;;;;;;;;;;;;;11.23;78.13;99286.04;133898;1297;22512;-74
2023/03/24 05:20:36;;;;;;;;;;;;;;;11.24;78.17;99286.13;134119;1297;22446;-73
2023/03/24 05:23:44;;;;;;;;;;;;;;;11.26;78.14;99281.85;134070;1302;22459;-74
2023/03/24 05:26:45;;;;;;;;;;;;;;;11.27;78.16;99278.64;134040;1297;23318;-73
2023/03/24 05:29:51;;;;;;;;;;;;;;;11.29;78.34;99273.49;134158;1298;22457;-74
2023/03/24 05:33:16;;;;;;;;;;;;;;;11.31;78.32;99270.08;134082;1298;22480;-73
2023/03/24 05:36:19;;;;;;;;;;;;;;;11.33;78.32;99269.77;134144;1297;23234;-73
2023/03/24 05:39:36;;;;;;;;;;;;;;;11.37;78.43;99276.02;134146;1297;22548;-75
2023/03/24 05:42:42;;;;;;;;;;;;;;;11.40;78.24;99276.98;134149;1298;22525;-73
2023/03/24 05:45:58;;;;;;;;;;;;;;;;;;;;;
2023/03/24 05:49:03;;;;;;;;;;;;;;;11.48;77.94;99273.33;134134;1297;23285;-73
2023/03/24 05:52:21;;;;;;;;;;;;;;;;;;;;;
2023/03/24 05:55:25;;;;;;;;;;;;;;;11.60;77.80;99265.81;134030;1297;22463;-74
2023/03/24 05:58:44;;;;;;;;;;;;;;;;;;;;;
2023/03/24 06:01:47;;;;;;;;;;;;;;;11.75;77.49;99274.05;134294;1297;22438;-73
2023/03/24 06:05:02;;;;;;;;;;;;;;;11.81;77.52;99271.63;134185;1298;23569;-70
2023/03/24 06:08:04;;;;;;;;;;;;;;;11.88;77.41;99269.44;134109;1297;22439;-70
2023/03/24 06:11:07;;;;;;;;;;;;;;;11.92;77.37;99268.70;134133;1299;22450;-71
2023/03/24 06:14:16;;;;;;;;;;;;;;;11.97;77.35;99268.77;134160;1296;23587;-71
2023/03/24 06:17:29;;;;;;;;;;;;;;;12.02;77.13;99271.90;133844;1300;22546;-71
2023/03/24 06:20:35;;;;;;;;;;;;;;;12.07;76.99;99272.45;133938;1297;22646;-70
2023/03/24 06:23:39;;;;;;;;;;;;;;;12.13;76.73;99263.53;133947;1297;22419;-71
2023/03/24 06:26:48;;;;;;;;;;;;;;;12.21;76.84;99260.73;134284;1298;22520;-70
2023/03/24 06:29:52;;;;;;;;;;;;;;;12.31;76.75;99257.71;134323;1298;22465;-70
2023/03/24 06:32:53;;;;;;;;;;;;;;;12.42;76.82;99255.48;134112;1298;23200;-71
2023/03/24 06:35:53;;;;;;;;;;;;;;;12.53;76.64;99254.75;134328;1296;22464;-71
2023/03/24 06:38:55;;;;;;;;;;;;;;;12.64;76.30;99258.35;134148;1297;23103;-71
2023/03/24 06:41:55;;;;;;;;;;;;;;;12.74;76.13;99255.91;134319;1297;22449;-71
2023/03/24 06:44:56;;;;;;;;;;;;;;;12.83;75.94;99258.84;134306;1298;22477;-71
2023/03/24 06:47:57;;;;;;;;;;;;;;;12.92;75.78;99256.08;134130;1298;22481;-71
2023/03/24 06:50:58;;;;;;;;;;;;;;;12.99;75.44;99254.20;134091;1301;22549;-70
2023/03/24 06:54:03;;;;;;;;;;;;;;;13.07;75.17;99254.45;134159;1298;23139;-71
2023/03/24 06:57:04;;;;;;;;;;;;;;;13.15;74.96;99255.15;134175;1296;22459;-70
2023/03/24 07:04:24;;;;;;;;;;;;;;;13.37;74.48;99252.39;133528;1304;22476;-71
2023/03/24 07:07:28;;;;;;;;;;;;;;;13.48;74.28;99251.73;133452;1304;23203;-70
2023/03/24 07:10:46;;;;;;;;;;;;;;;13.59;74.02;99253.85;133982;1298;23255;-70
2023/03/24 07:13:50;;;;;;;;;;;;;;;13.72;73.74;99256.79;134313;1298;23084;-70
2023/03/24 07:16:53;;;;;;;;;;;;;;;13.83;73.53;99252.57;134105;1290;22453;-71
2023/03/24 07:19:59;;;;;;;;;;;;;;;13.99;73.19;99251.91;134245;1295;23119;-70
2023/03/24 07:23:32;;;;;;;;;;;;;;;14.18;73.04;99246.06;133869;1298;22549;-73
2023/03/24 07:26:49;;;;;;;;;;;;;;;14.39;72.63;99245.65;134042;1301;22451;-74
2023/03/24 07:29:56;;;;;;;;;;;;;;;14.57;71.96;99243.73;134103;1298;22480;-73
2023/03/24 07:33:11;;;;;;;;;;;;;;;14.70;71.58;99244.72;134101;1299;22439;-73
2023/03/24 07:36:12;;;;;;;;;;;;;;;14.78;71.34;99242.54;133968;1301;22530;-75
2023/03/24 07:39:13;;;;;;;;;;;;;;;14.79;70.75;99243.40;134236;1295;22472;-74
2023/03/24 07:42:14;;;;;;;;;;;;;;;14.76;70.22;99242.39;134133;1298;22451;-74
2023/03/24 07:45:37;;;;;;;;;;;;;;;14.73;70.35;99243.23;134273;1297;22473;-71
2023/03/24 07:48:39;;;;;;;;;;;;;;;14.73;70.10;99243.77;134166;1297;23240;-71
2023/03/24 07:51:39;;;;;;;;;;;;;;;14.67;70.05;99239.12;134287;1297;22451;-71
2023/03/24 07:54:54;;;;;;;;;;;;;;;14.60;70.27;99235.14;134144;1297;22452;-72
2023/03/24 07:58:30;;;;;;;;;;;;;;;14.55;70.36;99237.95;133805;1294;22505;-71
2023/03/24 08:02:10;;;;;;;;;;;;;;;;;;;;;
2023/03/24 08:05:37;;;;;;;;;;;;;;;14.46;70.47;99238.38;133959;1298;22448;-71
2023/03/24 08:08:53;;;;;;;;;;;;;;;14.35;70.65;99236.77;134271;1297;23207;-72
2023/03/24 08:11:57;;;;;;;;;;;;;;;14.24;70.67;99232.20;134294;1297;23313;-72
2023/03/24 08:15:03;;;;;;;;;;;;;;;14.14;70.82;99230.52;134316;1297;23189;-72
2023/03/24 08:18:14;;;;;;;;;;;;;;;14.04;71.03;99221.29;134274;1295;22510;-72
2023/03/24 08:21:18;;;;;;;;;;;;;;;13.95;71.44;99212.82;134297;1296;22455;-72
2023/03/24 08:24:19;;;;;;;;;;;;;;;13.88;71.61;99209.23;134264;1297;22492;-71
2023/03/24 08:27:20;;;;;;;;;;;;;;;13.81;71.66;99202.89;134191;1298;22412;-71
2023/03/24 08:30:22;;;;;;;;;;;;;;;13.75;71.98;99201.40;134249;1297;22716;-72
2023/03/24 08:33:23;;;;;;;;;;;;;;;13.68;72.13;99198.27;134242;1297;22510;-72
2023/03/24 08:36:25;;;;;;;;;;;;;;;13.62;72.23;99200.70;134103;1296;23301;-72
2023/03/24 08:39:27;;;;;;;;;;;;;;;13.58;72.52;99201.94;134255;1296;22495;-71
2023/03/24 08:42:27;;;;;;;;;;;;;;;13.57;72.64;99200.14;134257;1291;22429;-72
2023/03/24 08:45:30;;;;;;;;;;;;;;;13.58;72.82;99197.14;134294;1297;22451;-72
2023/03/24 08:48:39;;;;;;;;;;;;;;;13.64;72.87;99193.47;134273;1297;22417;-72
2023/03/24 08:51:40;;;;;;;;;;;;;;;13.76;72.94;99189.17;134243;1297;23083;-72
2023/03/24 08:54:51;;;;;;;;;;;;;;;14.09;73.07;99187.98;134245;1298;22468;-72
2023/03/24 08:57:52;;;;;;;;;;;;;;;14.71;72.37;99184.69;134239;1296;22458;-72
2023/03/24 09:00:53;;;;;;;;;;;;;;;15.19;70.79;99181.54;134308;1296;23180;-71
2023/03/24 09:03:53;;;;;;;;;;;;;;;15.56;70.02;99176.14;134260;1298;22981;-71
2023/03/24 09:06:58;;;;;;;;;;;;;;;15.69;69.55;99167.88;134220;1298;23223;-71
2023/03/24 09:10:03;;;;;;;;;;;;;;;15.73;68.89;99160.77;134203;1298;22428;-71
2023/03/24 09:13:04;;;;;;;;;;;;;;;15.71;68.66;99159.44;134279;1297;22501;-71
2023/03/24 09:16:05;;;;;;;;;;;;;;;15.73;68.77;99159.38;134212;1297;22508;-71
2023/03/24 09:19:09;;;;;;;;;;;;;;;15.73;68.82;99155.92;134230;1297;22450;-70
2023/03/24 09:22:10;;;;;;;;;;;;;;;15.76;68.52;99143.05;134196;1301;22485;-71
2023/03/24 09:25:18;;;;;;;;;;;;;;;15.80;68.07;99139.05;134206;1297;22765;-71
2023/03/24 09:28:29;;;;;;;;;;;;;;;15.84;67.75;99132.53;134246;1304;22570;-70
2023/03/24 09:31:32;;;;;;;;;;;;;;;15.87;67.42;99136.24;134244;1298;22450;-70
2023/03/24 09:34:33;;;;;;;;;;;;;;;15.91;67.12;99129.30;134250;1298;22465;-70
2023/03/24 09:37:38;;;;;;;;;;;;;;;15.93;66.91;99128.71;134232;1301;22464;-71
2023/03/24 09:40:39;;;;;;;;;;;;;;;15.98;66.66;99126.92;134273;1298;22514;-70
2023/03/24 09:43:41;;;;;;;;;;;;;;;16.02;66.29;99123.34;134149;1298;22456;-71
2023/03/24 09:46:47;;;;;;;;;;;;;;;16.07;66.40;99115.56;134299;1297;23224;-70
2023/03/24 09:49:48;;;;;;;;;;;;;;;16.18;66.48;99110.27;134149;1298;22465;-70
2023/03/24 09:52:55;;;;;;;;;;;;;;;16.34;66.38;99108.02;134272;1297;23134;-70
2023/03/24 09:56:00;;;;;;;;;;;;;;;16.54;66.34;99099.02;134202;1294;22442;-71
2023/03/24 09:59:16;;;;;;;;;;;;;;;16.72;65.60;99093.67;134118;1297;23240;-70
2023/03/24 10:02:22;;;;;;;;;;;;;;;16.87;65.55;99093.52;134224;1297;22463;-69
2023/03/24 10:05:26;;;;;;;;;;;;;;;17.00;64.86;99090.66;134293;1298;22443;-70
2023/03/24 10:08:51;;;;;;;;;;;;;;;;;;;;;
2023/03/24 10:12:07;;;;;;;;;;;;;;;17.22;63.60;99085.41;134244;1298;22599;-70
2023/03/24 10:15:08;;;;;;;;;;;;;;;17.28;62.66;99082.07;134239;1297;22549;-70
2023/03/24 10:18:15;;;;;;;;;;;;;;;17.33;62.79;99083.08;134243;1297;22454;-70
2023/03/24 10:21:21;;;;;;;;;;;;;;;17.36;62.22;99084.60;134245;1294;22473;-70
2023/03/24 10:24:28;;;;;;;;;;;;;;;17.38;61.60;99073.58;134255;1296;22630;-70
2023/03/24 10:27:50;;;;;;;;;;;;;;;17.45;61.29;99069.11;134230;1298;23329;-71
2023/03/24 10:30:52;;;;;;;;;;;;;;;17.55;61.15;99066.36;134179;1298;23119;-71
2023/03/24 10:33:56;;;;;;;;;;;;;;;17.63;60.53;99057.66;134130;1298;22451;-70
2023/03/24 10:36:59;;;;;;;;;;;;;;;17.70;60.07;99051.14;134065;1299;22472;-70
2023/03/24 10:40:22;;;;;;;;;;;;;;;17.87;59.26;99047.75;134231;1298;23112;-70
2023/03/24 10:43:26;;;;;;;;;;;;;;;18.09;60.05;99045.88;134207;1297;22527;-70
2023/03/24 10:46:29;;;;;;;;;;;;;;;18.25;59.11;99041.61;134236;1298;22577;-70
2023/03/24 10:49:30;;;;;;;;;;;;;;;18.42;58.24;99039.03;134269;1298;22473;-70
2023/03/24 10:52:40;;;;;;;;;;;;;;;18.64;58.60;99034.16;134198;1297;22541;-70
2023/03/24 10:55:43;;;;;;;;;;;;;;;18.86;57.19;99030.20;134249;1298;22459;-70
2023/03/24 10:58:52;;;;;;;;;;;;;;;18.99;56.54;99028.89;134229;1295;22452;-70
2023/03/24 11:01:58;;;;;;;;;;;;;;;19.10;55.56;99026.55;134235;1298;22455;-70
2023/03/24 11:05:04;;;;;;;;;;;;;;;19.23;54.84;99024.41;134244;1298;22565;-70
2023/03/24 11:08:43;;;;;;;;;;;;;;;19.39;54.06;99017.07;134200;1297;22447;-70
2023/03/24 11:11:58;;;;;;;;;;;;;;;;;;;;;
2023/03/24 11:15:02;;;;;;;;;;;;;;;19.69;53.70;99027.73;134228;1300;22424;-70
2023/03/24 11:18:12;;;;;;;;;;;;;;;19.80;52.32;99021.61;134027;1303;22538;-70
2023/03/24 11:21:15;;;;;;;;;;;;;;;19.64;51.93;99021.79;134238;1301;22477;-70
2023/03/24 11:24:28;;;;;;;;;;;;;;;19.42;52.02;99023.55;134257;1295;22473;-70
2023/03/24 11:27:30;;;;;;;;;;;;;;;19.23;51.94;99019.89;134241;1298;22475;-70
2023/03/24 11:30:35;;;;;;;;;;;;;;;19.13;52.11;99022.30;134233;1303;22420;-70
2023/03/24 11:33:50;;;;;;;;;;;;;;;19.14;52.08;99017.63;134168;1297;23234;-70
2023/03/24 11:36:59;;;;;;;;;;;;;;;19.26;52.20;99009.50;134247;1294;22445;-70
2023/03/24 11:40:09;;;;;;;;;;;;;;;19.45;52.52;99010.80;134303;1298;23307;-71
2023/03/24 11:43:18;;;;;;;;;;;;;;;19.66;52.25;99005.77;134064;1298;22452;-70
2023/03/24 11:46:22;;;;;;;;;;;;;;;19.81;51.94;98998.41;134058;1298;22482;-70
2023/03/24 11:49:26;;;;;;;;;;;;;;;19.86;51.58;98998.20;134082;1302;24616;-71
2023/03/24 11:52:30;;;;;;;;;;;;;;;19.73;50.75;98996.88;134244;1298;22528;-70
2023/03/24 11:55:37;;;;;;;;;;;;;;;19.57;50.95;98998.88;134195;1298;22548;-70
2023/03/24 11:59:05;;;;;;;;;;;;;;;;;;;;;
2023/03/24 12:02:35;;;;;;;;;;;;;;;19.29;51.91;98996.42;134243;1298;22515;-70
2023/03/24 12:05:56;;;;;;;;;;;;;;;19.13;51.83;98992.94;134191;1299;22478;-70
2023/03/24 12:09:11;;;;;;;;;;;;;;;18.95;51.93;98988.63;134235;1295;22566;-70
2023/03/24 12:12:21;;;;;;;;;;;;;;;18.87;52.40;98984.36;134258;1298;25564;-71
2023/03/24 12:16:07;;;;;;;;;;;;;;;18.84;52.24;98974.81;134228;1302;22472;-70
2023/03/24 12:19:27;;;;;;;;;;;;;;;18.79;52.19;98969.39;134290;1293;22440;-70
2023/03/24 12:22:30;;;;;;;;;;;;;;;18.78;52.35;98972.64;134194;1299;23205;-70
2023/03/24 12:25:31;;;;;;;;;;;;;;;18.74;52.04;98978.70;134283;1298;23084;-70
2023/03/24 12:28:46;;;;;;;;;;;;;;;18.74;52.38;98985.31;134111;1299;22545;-70
2023/03/24 12:32:06;;;;;;;;;;;;;;;18.85;52.49;98980.91;134283;1298;23258;-70
2023/03/24 12:35:10;;;;;;;;;;;;;;;18.95;52.44;98978.64;134117;1299;22634;-70
2023/03/24 12:38:11;;;;;;;;;;;;;;;18.93;52.08;98973.98;134261;1300;22473;-70
2023/03/24 12:41:30;;;;;;;;;;;;;;;18.79;52.13;98971.44;134234;1298;22427;-70
2023/03/24 12:44:50;;;;;;;;;;;;;;;18.63;52.10;98972.86;134266;1295;23182;-71
2023/03/24 12:48:00;;;;;;;;;;;;;;;18.44;52.63;98969.77;134257;1298;23381;-70
2023/03/24 12:51:24;;;;;;;;;;;;;;;18.24;53.01;98969.58;134269;1298;22459;-70
2023/03/24 12:54:36;;;;;;;;;;;;;;;18.08;53.40;98970.72;134184;1298;24542;-70
2023/03/24 12:57:41;;;;;;;;;;;;;;;17.97;53.62;98968.71;134177;1298;22554;-70
2023/03/24 13:00:53;;;;;;;;;;;;;;;17.90;54.14;98964.73;134043;1304;23158;-70
2023/03/24 13:04:04;;;;;;;;;;;;;;;17.84;54.39;98962.48;134238;1299;23582;-70
2023/03/24 13:07:18;;;;;;;;;;;;;;;17.78;54.66;98955.83;134294;1297;23136;-70
2023/03/24 13:10:26;;;;;;;;;;;;;;;17.72;54.89;98954.78;134127;1303;23583;-70
2023/03/24 13:13:30;;;;;;;;;;;;;;;17.67;55.34;98951.15;134153;1298;22549;-70
2023/03/24 13:16:38;;;;;;;;;;;;;;;17.62;55.59;98945.48;134289;1298;22485;-70
2023/03/24 13:19:41;;;;;;;;;;;;;;;17.59;55.68;98944.85;134301;1297;23249;-70
2023/03/24 13:22:54;;;;;;;;;;;;;;;17.55;56.01;98940.10;134246;1298;22395;-70
2023/03/24 13:26:03;;;;;;;;;;;;;;;17.51;56.22;98939.53;134283;1297;23287;-70
2023/03/24 13:29:10;;;;;;;;;;;;;;;17.43;56.49;98937.44;134280;1301;22475;-70
2023/03/24 13:32:21;;;;;;;;;;;;;;;17.37;56.66;98935.48;134285;1296;23493;-70
2023/03/24 13:35:27;;;;;;;;;;;;;;;17.31;56.84;98929.69;134288;1297;22442;-70
2023/03/24 13:38:50;;;;;;;;;;;;;;;17.24;57.01;98920.94;134297;1298;22465;-70
2023/03/24 13:41:52;;;;;;;;;;;;;;;17.19;57.24;98918.31;134132;1298;23275;-70
2023/03/24 13:44:58;;;;;;;;;;;;;;;17.11;57.51;98917.67;134294;1298;22457;-69
2023/03/24 13:48:05;;;;;;;;;;;;;;;17.00;57.80;98917.57;134305;1298;22463;-71
2023/03/24 13:51:25;;;;;;;;;;;;;;;16.90;58.07;98912.70;134125;1297;22464;-70
2023/03/24 13:54:26;;;;;;;;;;;;;;;16.82;58.63;98912.29;134274;1297;22568;-70
2023/03/24 13:57:27;;;;;;;;;;;;;;;16.74;58.98;98909.85;134111;1301;22465;-70
2023/03/24 14:00:28;;;;;;;;;;;;;;;16.70;59.35;98907.92;134270;1298;22643;-72
2023/03/24 14:03:38;;;;;;;;;;;;;;;16.67;59.71;98909.56;134305;1294;22620;-71
2023/03/24 14:06:46;;;;;;;;;;;;;;;16.65;59.82;98912.30;134271;1297;22442;-70
2023/03/24 14:09:58;;;;;;;;;;;;;;;16.62;59.99;98914.12;134128;1298;22449;-69
2023/03/24 14:13:19;;;;;;;;;;;;;;;16.56;60.04;98917.77;134248;1296;23124;-70
2023/03/24 14:16:32;;;;;;;;;;;;;;;16.55;60.35;98920.83;133952;1304;22450;-70
2023/03/24 14:19:39;;;;;;;;;;;;;;;16.54;60.43;98922.42;134257;1297;22457;-70
2023/03/24 14:22:46;;;;;;;;;;;;;;;16.51;60.73;98922.40;134283;1296;22414;-72
2023/03/24 14:25:55;;;;;;;;;;;;;;;16.45;61.21;98925.85;134296;1297;22491;-70
2023/03/24 14:28:56;;;;;;;;;;;;;;;16.36;61.76;98920.48;134075;1297;22454;-70
2023/03/24 14:32:01;;;;;;;;;;;;;;;16.28;62.19;98923.02;134003;1298;299994;-70
2023/03/24 14:35:03;;;;;;;;;;;;;;;16.25;62.98;98917.02;134264;1298;22452;-70
2023/03/24 14:38:19;;;;;;;;;;;;;;;16.23;62.74;98916.00;134267;1296;22535;-70
2023/03/24 14:41:34;;;;;;;;;;;;;;;16.26;63.07;98911.73;134220;1297;23085;-69
2023/03/24 14:44:51;;;;;;;;;;;;;;;16.33;62.94;98909.42;134099;1298;22583;-70
2023/03/24 14:48:02;;;;;;;;;;;;;;;16.41;63.03;98908.95;134270;1297;23403;-70
2023/03/24 14:51:06;;;;;;;;;;;;;;;16.47;63.37;98911.92;134286;1296;23090;-70
2023/03/24 14:54:22;;;;;;;;;;;;;;;16.52;63.23;98907.70;134124;1298;22450;-70
2023/03/24 14:57:26;;;;;;;;;;;;;;;16.58;63.09;98903.08;134271;1297;22459;-69
2023/03/24 15:00:27;;;;;;;;;;;;;;;16.62;62.98;98905.93;134242;1301;23362;-70
2023/03/24 15:03:48;;;;;;;;;;;;;;;16.60;62.81;98904.05;134266;1291;22538;-70
2023/03/24 15:06:50;;;;;;;;;;;;;;;16.55;62.75;98901.94;134281;1298;22474;-70
2023/03/24 15:09:51;;;;;;;;;;;;;;;16.50;62.39;98897.21;134314;1298;22459;-69
2023/03/24 15:12:52;;;;;;;;;;;;;;;16.44;62.28;98894.20;134308;1296;22574;-70
2023/03/24 15:15:52;;;;;;;;;;;;;;;16.43;62.06;98894.70;134298;1297;22445;-70
2023/03/24 15:18:55;;;;;;;;;;;;;;;16.45;61.98;98888.43;134268;1297;22463;-70
2023/03/24 15:21:56;;;;;;;;;;;;;;;16.49;61.78;98888.26;134251;1296;22535;-70
2023/03/24 15:24:57;;;;;;;;;;;;;;;16.53;61.74;98888.98;134075;1298;23517;-70
2023/03/24 15:27:57;;;;;;;;;;;;;;;16.56;61.44;98887.55;134322;1297;22432;-70
2023/03/24 15:30:58;;;;;;;;;;;;;;;16.58;61.18;98885.98;134290;1292;22450;-70
2023/03/24 15:34:17;;;;;;;;;;;;;;;16.58;61.14;98883.54;134286;1295;22470;-70
2023/03/24 15:37:20;;;;;;;;;;;;;;;16.60;60.96;98872.52;134261;1297;22450;-69
2023/03/24 15:40:32;;;;;;;;;;;;;;;16.63;60.60;98861.66;134294;1297;22496;-70
2023/03/24 15:43:43;;;;;;;;;;;;;;;16.69;60.51;98854.01;134302;1298;23641;-70
2023/03/24 15:46:44;;;;;;;;;;;;;;;16.71;60.45;98856.79;134296;1297;22435;-69
2023/03/24 15:50:09;;;;;;;;;;;;;;;;;;;;;
2023/03/24 15:53:18;;;;;;;;;;;;;;;16.68;60.10;98870.96;134186;1297;22446;-69
2023/03/24 15:56:23;;;;;;;;;;;;;;;16.64;59.94;98871.58;134295;1297;22458;-69
2023/03/24 15:59:31;;;;;;;;;;;;;;;16.60;59.84;98867.97;134268;1297;22475;-69
2023/03/24 16:02:37;;;;;;;;;;;;;;;16.57;59.81;98861.81;134206;1297;22537;-69
2023/03/24 16:05:46;;;;;;;;;;;;;;;16.55;59.52;98868.92;134217;1296;23622;-69
2023/03/24 16:08:48;;;;;;;;;;;;;;;16.51;59.49;98876.30;134067;1294;22471;-69
2023/03/24 16:11:49;;;;;;;;;;;;;;;16.46;59.30;98869.19;134274;1296;22569;-69
2023/03/24 16:14:49;;;;;;;;;;;;;;;16.44;58.89;98866.79;134272;1297;22462;-70
2023/03/24 16:17:50;;;;;;;;;;;;;;;16.43;58.98;98872.21;134319;1297;22466;-69
2023/03/24 16:20:51;;;;;;;;;;;;;;;16.40;58.98;98873.18;134103;1297;22590;-70